createdAt,value
2017-02-20T00:01:02.451Z,0
2017-02-20T00:02:13.169Z,0
2017-02-20T00:03:23.502Z,0
2017-02-20T00:04:34.234Z,0
2017-02-20T00:05:44.955Z,0
2017-02-20T00:06:55.680Z,0
2017-02-20T00:08:06.404Z,0
2017-02-20T00:09:17.140Z,0
2017-02-20T00:10:27.460Z,0
2017-02-20T00:11:38.168Z,0
2017-02-20T00:12:48.863Z,0
2017-02-20T00:13:59.566Z,0
2017-02-20T00:15:10.279Z,0
2017-02-20T00:16:20.971Z,0
2017-02-20T00:17:31.696Z,0
2017-02-20T00:18:42.423Z,0
2017-02-20T00:19:53.136Z,0
2017-02-20T00:21:03.846Z,0
2017-02-20T00:22:14.141Z,0
2017-02-20T00:23:24.841Z,0
2017-02-20T00:24:35.553Z,0
2017-02-20T00:25:46.257Z,0
2017-02-20T00:26:56.979Z,0
2017-02-20T00:28:07.679Z,0
2017-02-20T00:29:17.987Z,0
2017-02-20T00:30:28.698Z,0
2017-02-20T00:31:39.402Z,0
2017-02-20T00:32:50.123Z,0
2017-02-20T00:34:00.842Z,0
2017-02-20T00:35:11.598Z,0
2017-02-20T00:36:21.912Z,0
2017-02-20T00:37:32.616Z,0
2017-02-20T00:38:43.339Z,0
2017-02-20T00:39:54.045Z,0
2017-02-20T00:41:04.768Z,0
2017-02-20T00:42:15.484Z,0
2017-02-20T00:43:26.190Z,0
2017-02-20T00:44:36.908Z,0
2017-02-20T00:45:47.644Z,0
2017-02-20T00:46:58.362Z,0
2017-02-20T00:48:09.071Z,0
2017-02-20T00:49:19.002Z,0
2017-02-20T00:50:29.711Z,0
2017-02-20T00:51:40.431Z,0
2017-02-20T00:52:51.151Z,0
2017-02-20T00:54:01.458Z,0
2017-02-20T00:55:12.166Z,0
2017-02-20T00:56:22.077Z,0
2017-02-20T00:57:32.783Z,0
2017-02-20T00:58:43.492Z,0
2017-02-20T00:59:54.190Z,0
2017-02-20T01:01:04.922Z,0
2017-02-20T01:02:15.232Z,0
2017-02-20T01:03:25.939Z,0
2017-02-20T01:04:36.641Z,0
2017-02-20T01:05:47.358Z,0
2017-02-20T01:06:58.086Z,0
2017-02-20T01:08:08.797Z,0
2017-02-20T01:09:19.132Z,0
2017-02-20T01:10:29.446Z,0
2017-02-20T01:11:40.163Z,0
2017-02-20T01:12:50.865Z,0
2017-02-20T01:14:01.566Z,0
2017-02-20T01:15:12.286Z,0
2017-02-20T01:16:22.993Z,0
2017-02-20T01:17:33.701Z,0
2017-02-20T01:18:43.628Z,0
2017-02-20T01:19:54.333Z,0
2017-02-20T01:21:05.055Z,0
2017-02-20T01:22:15.003Z,0
2017-02-20T01:23:25.332Z,0
2017-02-20T01:24:35.643Z,0
2017-02-20T01:25:46.338Z,0
2017-02-20T01:26:57.083Z,0
2017-02-20T01:28:07.811Z,0
2017-02-20T01:29:18.125Z,0
2017-02-20T01:30:28.824Z,0
2017-02-20T01:31:39.526Z,0
2017-02-20T01:32:50.230Z,0
2017-02-20T01:34:00.571Z,0
2017-02-20T01:35:11.289Z,0
2017-02-20T01:36:21.992Z,0
2017-02-20T01:37:32.708Z,0
2017-02-20T01:38:43.414Z,0
2017-02-20T01:39:53.712Z,0
2017-02-20T01:41:04.423Z,0
2017-02-20T01:42:14.337Z,0
2017-02-20T01:43:24.634Z,0
2017-02-20T01:44:35.345Z,0
2017-02-20T01:45:46.057Z,0
2017-02-20T01:46:56.753Z,0
2017-02-20T01:48:07.454Z,0
2017-02-20T01:49:17.754Z,0
2017-02-20T01:50:28.466Z,0
2017-02-20T01:51:38.789Z,0
2017-02-20T01:52:49.500Z,0
2017-02-20T01:54:00.317Z,0
2017-02-20T01:55:11.043Z,0
2017-02-20T01:56:21.362Z,0
2017-02-20T01:57:32.054Z,0
2017-02-20T01:58:42.745Z,0
2017-02-20T01:59:53.459Z,0
2017-02-20T02:01:04.169Z,0
2017-02-20T02:02:14.072Z,0
2017-02-20T02:03:23.977Z,0
2017-02-20T02:04:34.689Z,0
2017-02-20T02:05:45.378Z,0
2017-02-20T02:06:56.088Z,0
2017-02-20T02:08:06.793Z,0
2017-02-20T02:09:17.516Z,0
2017-02-20T02:10:28.219Z,0
2017-02-20T02:11:38.929Z,0
2017-02-20T02:12:49.637Z,0
2017-02-20T02:13:59.951Z,0
2017-02-20T02:15:10.667Z,0
2017-02-20T02:16:20.964Z,0
2017-02-20T02:17:31.690Z,0
2017-02-20T02:18:42.403Z,0
2017-02-20T02:19:53.100Z,0
2017-02-20T02:21:03.811Z,0
2017-02-20T02:22:14.114Z,0
2017-02-20T02:23:24.430Z,0
2017-02-20T02:24:35.146Z,0
2017-02-20T02:25:45.850Z,0
2017-02-20T02:26:56.576Z,0
2017-02-20T02:28:06.884Z,0
2017-02-20T02:29:17.486Z,0
2017-02-20T02:30:27.416Z,0
2017-02-20T02:31:38.121Z,0
2017-02-20T02:32:48.861Z,0
2017-02-20T02:33:59.569Z,0
2017-02-20T02:35:10.295Z,0
2017-02-20T02:36:20.201Z,0
2017-02-20T02:37:30.908Z,0
2017-02-20T02:38:41.628Z,0
2017-02-20T02:39:52.322Z,0
2017-02-20T02:41:03.049Z,0
2017-02-20T02:42:12.968Z,0
2017-02-20T02:43:23.697Z,0
2017-02-20T02:44:34.409Z,0
2017-02-20T02:45:45.116Z,0
2017-02-20T02:46:55.807Z,0
2017-02-20T02:48:06.515Z,0
2017-02-20T02:49:17.232Z,0
2017-02-20T02:50:27.945Z,0
2017-02-20T02:51:38.638Z,0
2017-02-20T02:52:49.335Z,0
2017-02-20T02:54:00.038Z,0
2017-02-20T02:55:10.767Z,0
2017-02-20T02:56:21.471Z,0
2017-02-20T02:57:32.166Z,0
2017-02-20T02:58:42.861Z,0
2017-02-20T02:59:53.597Z,0
2017-02-20T03:01:03.917Z,0
2017-02-20T03:02:14.617Z,0
2017-02-20T03:03:24.546Z,0
2017-02-20T03:04:35.258Z,0
2017-02-20T03:05:45.966Z,0
2017-02-20T03:06:56.714Z,0
2017-02-20T03:08:07.417Z,0
2017-02-20T03:09:17.319Z,0
2017-02-20T03:10:28.012Z,0
2017-02-20T03:11:38.731Z,0
2017-02-20T03:12:49.435Z,0
2017-02-20T03:14:00.143Z,0
2017-02-20T03:15:10.485Z,0
2017-02-20T03:16:21.184Z,0
2017-02-20T03:17:31.927Z,0
2017-02-20T03:18:42.646Z,0
2017-02-20T03:19:53.371Z,0
2017-02-20T03:21:03.681Z,0
2017-02-20T03:22:13.618Z,0
2017-02-20T03:23:24.336Z,0
2017-02-20T03:24:35.093Z,0
2017-02-20T03:25:45.831Z,0
2017-02-20T03:26:56.550Z,0
2017-02-20T03:28:07.208Z,0
2017-02-20T03:29:17.919Z,0
2017-02-20T03:30:28.613Z,0
2017-02-20T03:31:39.325Z,0
2017-02-20T03:32:50.028Z,0
2017-02-20T03:34:00.735Z,0
2017-02-20T03:35:11.457Z,0
2017-02-20T03:36:21.388Z,0
2017-02-20T03:37:32.097Z,0
2017-02-20T03:38:42.843Z,0
2017-02-20T03:39:57.128Z,0
2017-02-20T03:41:07.853Z,0
2017-02-20T03:42:18.165Z,0
2017-02-20T03:43:28.861Z,0
2017-02-20T03:44:39.563Z,0
2017-02-20T03:45:50.297Z,0
2017-02-20T03:47:00.601Z,0
2017-02-20T03:48:10.927Z,0
2017-02-20T03:49:21.644Z,0
2017-02-20T03:50:32.356Z,0
2017-02-20T03:51:43.083Z,0
2017-02-20T03:52:53.797Z,0
2017-02-20T03:54:04.509Z,0
2017-02-20T03:55:14.812Z,0
2017-02-20T03:56:24.756Z,0
2017-02-20T03:57:35.468Z,0
2017-02-20T03:58:46.169Z,0
2017-02-20T03:59:56.886Z,0
2017-02-20T04:01:07.603Z,0
2017-02-20T04:02:18.315Z,0
2017-02-20T04:03:29.012Z,0
2017-02-20T04:04:39.349Z,0
2017-02-20T04:05:50.071Z,0
2017-02-20T04:07:00.793Z,0
2017-02-20T04:08:11.512Z,0
2017-02-20T04:09:22.218Z,0
2017-02-20T04:10:32.938Z,0
2017-02-20T04:11:43.656Z,0
2017-02-20T04:12:53.948Z,0
2017-02-20T04:14:04.663Z,0
2017-02-20T04:15:14.581Z,0
2017-02-20T04:16:25.300Z,0
2017-02-20T04:17:35.619Z,0
2017-02-20T04:18:46.321Z,0
2017-02-20T04:19:57.015Z,0
2017-02-20T04:21:06.942Z,0
2017-02-20T04:22:16.848Z,0
2017-02-20T04:23:27.542Z,0
2017-02-20T04:24:37.859Z,0
2017-02-20T04:25:48.564Z,0
2017-02-20T04:26:59.270Z,0
2017-02-20T04:28:09.588Z,0
2017-02-20T04:29:19.901Z,0
2017-02-20T04:30:30.220Z,0
2017-02-20T04:31:40.938Z,0
2017-02-20T04:32:51.642Z,0
2017-02-20T04:34:02.352Z,0
2017-02-20T04:35:13.047Z,0
2017-02-20T04:36:23.753Z,0
2017-02-20T04:37:34.481Z,0
2017-02-20T04:38:45.188Z,0
2017-02-20T04:39:55.907Z,0
2017-02-20T04:41:06.620Z,0
2017-02-20T04:42:17.334Z,0
2017-02-20T04:43:28.063Z,0
2017-02-20T04:44:38.781Z,0
2017-02-20T04:45:49.475Z,0
2017-02-20T04:47:00.199Z,0
2017-02-20T04:48:10.511Z,0
2017-02-20T04:49:21.228Z,0
2017-02-20T04:50:31.954Z,0
2017-02-20T04:51:42.651Z,0
2017-02-20T04:52:53.355Z,0
2017-02-20T04:54:04.081Z,0
2017-02-20T04:55:14.397Z,0
2017-02-20T04:56:25.101Z,0
2017-02-20T04:57:35.807Z,0
2017-02-20T04:58:46.509Z,0
2017-02-20T04:59:57.211Z,0
2017-02-20T05:01:07.929Z,0
2017-02-20T05:02:18.639Z,0
2017-02-20T05:03:29.358Z,0
2017-02-20T05:04:39.677Z,0
2017-02-20T05:05:50.391Z,0
2017-02-20T05:07:01.087Z,0
2017-02-20T05:08:11.838Z,0
2017-02-20T05:09:22.543Z,0
2017-02-20T05:10:32.895Z,0
2017-02-20T05:11:43.616Z,0
2017-02-20T05:12:54.322Z,0
2017-02-20T05:14:05.025Z,0
2017-02-20T05:15:15.728Z,0
2017-02-20T05:16:26.434Z,0
2017-02-20T05:17:37.136Z,0
2017-02-20T05:18:47.841Z,0
2017-02-20T05:19:58.559Z,0
2017-02-20T05:21:09.270Z,0
2017-02-20T05:22:19.971Z,0
2017-02-20T05:23:30.670Z,0
2017-02-20T05:24:41.389Z,0
2017-02-20T05:25:51.694Z,0
2017-02-20T05:27:02.440Z,0
2017-02-20T05:28:12.743Z,0
2017-02-20T05:29:23.444Z,0
2017-02-20T05:30:34.158Z,0
2017-02-20T05:31:44.466Z,0
2017-02-20T05:32:55.196Z,0
2017-02-20T05:34:05.908Z,0
2017-02-20T05:35:16.611Z,0
2017-02-20T05:36:26.922Z,0
2017-02-20T05:37:37.627Z,0
2017-02-20T05:38:48.330Z,0
2017-02-20T05:39:59.029Z,0
2017-02-20T05:41:09.758Z,0
2017-02-20T05:42:20.069Z,0
2017-02-20T05:43:30.796Z,0
2017-02-20T05:44:41.520Z,0
2017-02-20T05:45:52.244Z,0
2017-02-20T05:47:02.988Z,0
2017-02-20T05:48:13.693Z,0
2017-02-20T05:49:24.031Z,0
2017-02-20T05:50:34.335Z,0
2017-02-20T05:51:45.043Z,0
2017-02-20T05:52:55.772Z,0
2017-02-20T05:54:06.481Z,0
2017-02-20T05:55:16.822Z,0
2017-02-20T05:56:27.545Z,0
2017-02-20T05:57:38.243Z,0
2017-02-20T05:58:48.953Z,0
2017-02-20T05:59:59.662Z,0
2017-02-20T06:01:09.971Z,0
2017-02-20T06:02:20.271Z,0
2017-02-20T06:03:30.976Z,0
2017-02-20T06:04:41.713Z,0
2017-02-20T06:05:52.445Z,0
2017-02-20T06:07:03.199Z,0
2017-02-20T06:08:13.116Z,0
2017-02-20T06:09:23.836Z,0
2017-02-20T06:10:34.535Z,0
2017-02-20T06:11:45.273Z,0
2017-02-20T06:12:55.978Z,0
2017-02-20T06:14:06.691Z,0
2017-02-20T06:15:17.011Z,0
2017-02-20T06:16:27.720Z,0
2017-02-20T06:17:38.427Z,0
2017-02-20T06:18:49.133Z,0
2017-02-20T06:19:59.835Z,0
2017-02-20T06:21:10.544Z,0
2017-02-20T06:22:20.852Z,0
2017-02-20T06:23:31.556Z,0
2017-02-20T06:24:42.252Z,0
2017-02-20T06:25:52.558Z,0
2017-02-20T06:27:03.275Z,0
2017-02-20T06:28:13.986Z,0
2017-02-20T06:29:24.682Z,0
2017-02-20T06:30:35.407Z,0
2017-02-20T06:31:46.118Z,0
2017-02-20T06:32:56.832Z,0
2017-02-20T06:34:07.538Z,0
2017-02-20T06:35:17.855Z,5
2017-02-20T06:36:28.572Z,5
2017-02-20T06:37:39.282Z,5
2017-02-20T06:38:50.000Z,5
2017-02-20T06:40:00.703Z,5
2017-02-20T06:41:11.410Z,5
2017-02-20T06:42:21.712Z,5
2017-02-20T06:43:32.421Z,10
2017-02-20T06:44:43.120Z,10
2017-02-20T06:45:53.839Z,10
2017-02-20T06:47:04.555Z,10
2017-02-20T06:48:14.470Z,10
2017-02-20T06:49:25.221Z,10
2017-02-20T06:50:35.947Z,10
2017-02-20T06:51:46.684Z,15
2017-02-20T06:52:57.403Z,15
2017-02-20T06:54:08.115Z,15
2017-02-20T06:55:18.826Z,20
2017-02-20T06:56:29.547Z,20
2017-02-20T06:57:40.252Z,20
2017-02-20T06:58:50.977Z,25
2017-02-20T07:00:01.304Z,25
2017-02-20T07:01:12.016Z,25
2017-02-20T07:02:21.951Z,25
2017-02-20T07:03:32.270Z,30
2017-02-20T07:04:43.008Z,30
2017-02-20T07:05:53.711Z,30
2017-02-20T07:07:04.034Z,30
2017-02-20T07:08:14.348Z,35
2017-02-20T07:09:25.047Z,35
2017-02-20T07:10:35.758Z,35
2017-02-20T07:11:46.472Z,35
2017-02-20T07:12:57.193Z,35
2017-02-20T07:14:07.932Z,35
2017-02-20T07:15:18.255Z,35
2017-02-20T07:16:28.958Z,40
2017-02-20T07:17:39.666Z,40
2017-02-20T07:18:50.383Z,45
2017-02-20T07:20:01.098Z,45
2017-02-20T07:21:11.799Z,50
2017-02-20T07:22:22.508Z,50
2017-02-20T07:23:33.219Z,50
2017-02-20T07:24:43.918Z,50
2017-02-20T07:25:54.635Z,55
2017-02-20T07:27:05.365Z,55
2017-02-20T07:28:16.105Z,55
2017-02-20T07:29:26.412Z,60
2017-02-20T07:30:37.138Z,60
2017-02-20T07:31:47.452Z,60
2017-02-20T07:32:58.152Z,65
2017-02-20T07:34:08.895Z,70
2017-02-20T07:35:19.216Z,70
2017-02-20T07:36:29.933Z,70
2017-02-20T07:37:40.633Z,70
2017-02-20T07:38:51.336Z,70
2017-02-20T07:40:02.050Z,70
2017-02-20T07:41:12.775Z,70
2017-02-20T07:42:22.701Z,70
2017-02-20T07:43:33.422Z,75
2017-02-20T07:44:43.733Z,75
2017-02-20T07:45:54.462Z,80
2017-02-20T07:47:05.187Z,80
2017-02-20T07:48:14.710Z,80
2017-02-20T07:49:25.420Z,80
2017-02-20T07:50:36.141Z,85
2017-02-20T07:51:46.042Z,85
2017-02-20T07:52:56.745Z,85
2017-02-20T07:54:07.461Z,85
2017-02-20T07:55:17.771Z,90
2017-02-20T07:56:28.489Z,90
2017-02-20T07:57:39.201Z,95
2017-02-20T07:58:49.916Z,95
2017-02-20T08:00:00.632Z,100
2017-02-20T08:01:11.373Z,100
2017-02-20T08:02:22.076Z,100
2017-02-20T08:03:32.799Z,105
2017-02-20T08:04:43.502Z,105
2017-02-20T08:05:54.230Z,105
2017-02-20T08:07:04.968Z,110
2017-02-20T08:08:15.281Z,115
2017-02-20T08:09:25.989Z,120
2017-02-20T08:10:36.722Z,120
2017-02-20T08:11:47.437Z,120
2017-02-20T08:12:58.149Z,120
2017-02-20T08:14:08.456Z,115
2017-02-20T08:15:18.768Z,120
2017-02-20T08:16:29.084Z,120
2017-02-20T08:17:39.402Z,125
2017-02-20T08:18:50.100Z,125
2017-02-20T08:20:00.794Z,120
2017-02-20T08:21:11.126Z,115
2017-02-20T08:22:21.842Z,115
2017-02-20T08:23:32.162Z,115
2017-02-20T08:24:42.466Z,120
2017-02-20T08:25:53.159Z,125
2017-02-20T08:27:03.477Z,125
2017-02-20T08:28:13.782Z,125
2017-02-20T08:29:24.494Z,125
2017-02-20T08:30:35.222Z,125
2017-02-20T08:31:45.964Z,130
2017-02-20T08:32:56.681Z,130
2017-02-20T08:34:07.406Z,130
2017-02-20T08:35:17.717Z,135
2017-02-20T08:36:28.427Z,135
2017-02-20T08:37:38.745Z,135
2017-02-20T08:38:49.067Z,135
2017-02-20T08:39:59.764Z,135
2017-02-20T08:41:10.095Z,135
2017-02-20T08:42:20.793Z,135
2017-02-20T08:43:31.510Z,135
2017-02-20T08:44:42.217Z,135
2017-02-20T08:45:52.934Z,140
2017-02-20T08:47:03.644Z,140
2017-02-20T08:48:14.348Z,140
2017-02-20T08:49:25.050Z,135
2017-02-20T08:50:35.765Z,130
2017-02-20T08:51:46.474Z,125
2017-02-20T08:52:57.184Z,120
2017-02-20T08:54:07.502Z,120
2017-02-20T08:55:17.818Z,120
2017-02-20T08:56:28.136Z,120
2017-02-20T08:57:38.842Z,120
2017-02-20T08:58:49.558Z,120
2017-02-20T09:00:00.275Z,115
2017-02-20T09:01:10.613Z,115
2017-02-20T09:02:21.320Z,115
2017-02-20T09:03:32.071Z,110
2017-02-20T09:04:42.785Z,110
2017-02-20T09:05:53.494Z,110
2017-02-20T09:07:04.217Z,110
2017-02-20T09:08:14.949Z,110
2017-02-20T09:09:25.257Z,110
2017-02-20T09:10:35.962Z,115
2017-02-20T09:11:46.689Z,115
2017-02-20T09:12:57.391Z,120
2017-02-20T09:14:07.707Z,120
2017-02-20T09:15:18.023Z,125
2017-02-20T09:16:28.729Z,130
2017-02-20T09:17:39.434Z,135
2017-02-20T09:18:50.172Z,140
2017-02-20T09:20:00.485Z,140
2017-02-20T09:21:11.225Z,145
2017-02-20T09:22:21.945Z,150
2017-02-20T09:23:32.665Z,155
2017-02-20T09:24:42.997Z,155
2017-02-20T09:25:52.506Z,155
2017-02-20T09:27:02.816Z,155
2017-02-20T09:28:13.129Z,155
2017-02-20T09:29:23.833Z,160
2017-02-20T09:30:34.539Z,165
2017-02-20T09:31:45.246Z,170
2017-02-20T09:32:55.954Z,175
2017-02-20T09:34:06.670Z,175
2017-02-20T09:35:16.597Z,180
2017-02-20T09:36:27.295Z,180
2017-02-20T09:37:37.630Z,175
2017-02-20T09:38:48.343Z,175
2017-02-20T09:39:58.664Z,175
2017-02-20T09:41:09.377Z,180
2017-02-20T09:42:19.691Z,185
2017-02-20T09:43:30.399Z,185
2017-02-20T09:44:41.125Z,185
2017-02-20T09:45:51.435Z,180
2017-02-20T09:47:02.136Z,185
2017-02-20T09:48:12.070Z,185
2017-02-20T09:49:21.981Z,185
2017-02-20T09:50:32.701Z,185
2017-02-20T09:51:43.411Z,185
2017-02-20T09:52:53.722Z,190
2017-02-20T09:54:04.422Z,190
2017-02-20T09:55:14.748Z,190
2017-02-20T09:56:25.470Z,190
2017-02-20T09:57:36.210Z,190
2017-02-20T09:58:46.913Z,195
2017-02-20T09:59:57.619Z,200
2017-02-20T10:01:08.329Z,205
2017-02-20T10:02:18.655Z,205
2017-02-20T10:03:29.368Z,205
2017-02-20T10:04:40.087Z,210
2017-02-20T10:05:50.393Z,215
2017-02-20T10:07:01.107Z,220
2017-02-20T10:08:11.813Z,230
2017-02-20T10:09:22.527Z,245
2017-02-20T10:10:32.836Z,255
2017-02-20T10:11:42.765Z,265
2017-02-20T10:12:53.065Z,270
2017-02-20T10:14:03.400Z,280
2017-02-20T10:15:13.726Z,280
2017-02-20T10:16:24.028Z,280
2017-02-20T10:17:34.745Z,275
2017-02-20T10:18:45.471Z,275
2017-02-20T10:19:56.168Z,280
2017-02-20T10:21:06.081Z,280
2017-02-20T10:22:16.380Z,280
2017-02-20T10:23:26.703Z,280
2017-02-20T10:24:37.414Z,280
2017-02-20T10:25:47.322Z,275
2017-02-20T10:26:58.021Z,275
2017-02-20T10:28:08.353Z,275
2017-02-20T10:29:19.066Z,280
2017-02-20T10:30:29.396Z,275
2017-02-20T10:31:40.473Z,275
2017-02-20T10:32:50.788Z,280
2017-02-20T10:34:01.499Z,275
2017-02-20T10:35:12.214Z,280
2017-02-20T10:36:22.535Z,285
2017-02-20T10:37:33.248Z,290
2017-02-20T10:38:43.554Z,295
2017-02-20T10:39:54.264Z,295
2017-02-20T10:41:04.972Z,295
2017-02-20T10:42:15.292Z,290
2017-02-20T10:43:25.596Z,290
2017-02-20T10:44:36.308Z,285
2017-02-20T10:45:46.633Z,285
2017-02-20T10:46:57.330Z,280
2017-02-20T10:48:07.660Z,275
2017-02-20T10:49:18.390Z,275
2017-02-20T10:50:28.707Z,265
2017-02-20T10:51:39.417Z,255
2017-02-20T10:52:50.132Z,245
2017-02-20T10:54:00.849Z,230
2017-02-20T10:55:11.567Z,225
2017-02-20T10:56:21.474Z,220
2017-02-20T10:57:32.182Z,220
2017-02-20T10:58:42.908Z,215
2017-02-20T10:59:53.227Z,210
2017-02-20T11:01:03.537Z,210
2017-02-20T11:02:14.257Z,210
2017-02-20T11:03:24.995Z,215
2017-02-20T11:04:35.723Z,215
2017-02-20T11:05:46.045Z,210
2017-02-20T11:06:56.759Z,210
2017-02-20T11:08:07.470Z,210
2017-02-20T11:09:18.182Z,215
2017-02-20T11:10:28.507Z,225
2017-02-20T11:11:38.820Z,230
2017-02-20T11:12:49.138Z,240
2017-02-20T11:13:59.839Z,250
2017-02-20T11:15:10.159Z,255
2017-02-20T11:16:20.509Z,265
2017-02-20T11:17:31.236Z,270
2017-02-20T11:18:41.957Z,275
2017-02-20T11:19:52.289Z,275
2017-02-20T11:21:03.002Z,270
2017-02-20T11:22:13.332Z,265
2017-02-20T11:23:24.100Z,260
2017-02-20T11:24:34.818Z,250
2017-02-20T11:25:45.131Z,245
2017-02-20T11:26:55.846Z,245
2017-02-20T11:28:06.556Z,245
2017-02-20T11:29:16.472Z,245
2017-02-20T11:30:27.181Z,245
2017-02-20T11:31:37.883Z,240
2017-02-20T11:32:48.596Z,230
2017-02-20T11:33:58.896Z,220
2017-02-20T11:35:09.237Z,215
2017-02-20T11:36:19.956Z,205
2017-02-20T11:37:30.677Z,200
2017-02-20T11:38:41.379Z,195
2017-02-20T11:39:52.080Z,195
2017-02-20T11:41:02.780Z,195
2017-02-20T11:42:13.490Z,195
2017-02-20T11:43:24.199Z,200
2017-02-20T11:44:34.897Z,205
2017-02-20T11:45:45.606Z,210
2017-02-20T11:46:55.919Z,210
2017-02-20T11:48:06.670Z,215
2017-02-20T11:49:17.384Z,210
2017-02-20T11:50:28.089Z,205
2017-02-20T11:51:38.810Z,200
2017-02-20T11:52:49.519Z,195
2017-02-20T11:54:00.231Z,190
2017-02-20T11:55:10.143Z,190
2017-02-20T11:56:20.066Z,185
2017-02-20T11:57:30.764Z,180
2017-02-20T11:58:41.498Z,180
2017-02-20T11:59:52.201Z,185
2017-02-20T12:01:02.540Z,195
2017-02-20T12:02:12.883Z,200
2017-02-20T12:03:22.795Z,210
2017-02-20T12:04:33.495Z,210
2017-02-20T12:05:44.195Z,215
2017-02-20T12:06:54.922Z,220
2017-02-20T12:08:05.632Z,220
2017-02-20T12:09:15.550Z,225
2017-02-20T12:10:26.264Z,220
2017-02-20T12:11:36.601Z,230
2017-02-20T12:12:47.307Z,230
2017-02-20T12:13:58.003Z,225
2017-02-20T12:15:08.753Z,230
2017-02-20T12:16:19.059Z,235
2017-02-20T12:17:29.781Z,240
2017-02-20T12:18:39.722Z,235
2017-02-20T12:19:50.441Z,235
2017-02-20T12:21:01.172Z,240
2017-02-20T12:22:11.893Z,245
2017-02-20T12:23:24.229Z,265
2017-02-20T12:24:34.948Z,280
2017-02-20T12:25:45.668Z,290
2017-02-20T12:26:56.006Z,305
2017-02-20T12:28:06.734Z,320
2017-02-20T12:29:17.045Z,330
2017-02-20T12:30:27.752Z,355
2017-02-20T12:31:38.090Z,355
2017-02-20T12:32:48.802Z,340
2017-02-20T12:33:59.105Z,330
2017-02-20T12:35:12.134Z,325
2017-02-20T12:36:22.058Z,320
2017-02-20T12:37:32.374Z,320
2017-02-20T12:38:43.079Z,320
2017-02-20T12:39:53.384Z,320
2017-02-20T12:41:04.091Z,310
2017-02-20T12:42:14.397Z,300
2017-02-20T12:43:25.119Z,300
2017-02-20T12:44:35.827Z,300
2017-02-20T12:45:46.139Z,300
2017-02-20T12:46:56.851Z,295
2017-02-20T12:48:07.571Z,285
2017-02-20T12:49:18.293Z,280
2017-02-20T12:50:28.992Z,275
2017-02-20T12:51:39.712Z,270
2017-02-20T12:52:50.423Z,265
2017-02-20T12:54:01.149Z,255
2017-02-20T12:55:11.853Z,240
2017-02-20T12:56:22.566Z,225
2017-02-20T12:57:33.283Z,215
2017-02-20T12:58:43.592Z,210
2017-02-20T12:59:53.921Z,205
2017-02-20T13:01:04.248Z,210
2017-02-20T13:02:14.556Z,215
2017-02-20T13:03:25.258Z,220
2017-02-20T13:04:35.982Z,215
2017-02-20T13:05:46.699Z,215
2017-02-20T13:06:57.005Z,215
2017-02-20T13:08:07.730Z,210
2017-02-20T13:09:18.051Z,210
2017-02-20T13:10:28.390Z,210
2017-02-20T13:11:38.703Z,215
2017-02-20T13:12:49.032Z,220
2017-02-20T13:13:59.342Z,220
2017-02-20T13:15:09.669Z,225
2017-02-20T13:16:20.017Z,220
2017-02-20T13:17:30.747Z,215
2017-02-20T13:18:41.478Z,220
2017-02-20T13:19:51.822Z,220
2017-02-20T13:21:02.590Z,220
2017-02-20T13:22:13.323Z,220
2017-02-20T13:23:24.054Z,215
2017-02-20T13:24:34.777Z,210
2017-02-20T13:25:45.500Z,210
2017-02-20T13:26:55.823Z,205
2017-02-20T13:28:06.539Z,205
2017-02-20T13:29:17.243Z,210
2017-02-20T13:30:27.962Z,220
2017-02-20T13:31:38.676Z,235
2017-02-20T13:32:48.993Z,250
2017-02-20T13:33:59.306Z,265
2017-02-20T13:35:10.016Z,270
2017-02-20T13:36:20.717Z,255
2017-02-20T13:37:31.426Z,240
2017-02-20T13:38:41.748Z,225
2017-02-20T13:39:52.474Z,215
2017-02-20T13:41:03.171Z,205
2017-02-20T13:42:13.906Z,200
2017-02-20T13:43:24.227Z,200
2017-02-20T13:44:34.547Z,205
2017-02-20T13:45:45.260Z,215
2017-02-20T13:46:55.995Z,225
2017-02-20T13:48:06.701Z,230
2017-02-20T13:49:17.399Z,240
2017-02-20T13:50:28.115Z,250
2017-02-20T13:51:38.485Z,260
2017-02-20T13:52:48.796Z,260
2017-02-20T13:53:58.699Z,260
2017-02-20T13:55:09.015Z,250
2017-02-20T13:56:18.947Z,245
2017-02-20T13:57:29.253Z,255
2017-02-20T13:58:39.572Z,270
2017-02-20T13:59:49.500Z,290
2017-02-20T14:01:00.220Z,295
2017-02-20T14:02:10.924Z,320
2017-02-20T14:03:21.654Z,330
2017-02-20T14:04:32.381Z,325
2017-02-20T14:05:43.095Z,325
2017-02-20T14:06:53.407Z,325
2017-02-20T14:08:04.105Z,330
2017-02-20T14:09:14.417Z,330
2017-02-20T14:10:25.132Z,340
2017-02-20T14:11:35.844Z,345
2017-02-20T14:12:46.584Z,510
2017-02-20T14:13:56.892Z,315
2017-02-20T14:15:07.617Z,300
2017-02-20T14:16:18.344Z,290
2017-02-20T14:17:28.656Z,295
2017-02-20T14:18:38.965Z,305
2017-02-20T14:19:49.674Z,310
2017-02-20T14:21:00.383Z,310
2017-02-20T14:22:10.691Z,345
2017-02-20T14:23:21.415Z,315
2017-02-20T14:24:32.124Z,315
2017-02-20T14:25:42.840Z,305
2017-02-20T14:26:53.544Z,275
2017-02-20T14:28:03.860Z,260
2017-02-20T14:29:14.596Z,270
2017-02-20T14:30:25.300Z,315
2017-02-20T14:31:35.627Z,290
2017-02-20T14:32:46.328Z,370
2017-02-20T14:33:57.035Z,260
2017-02-20T14:35:07.357Z,225
2017-02-20T14:36:18.066Z,230
2017-02-20T14:37:28.772Z,270
2017-02-20T14:38:39.487Z,250
2017-02-20T14:39:50.204Z,265
2017-02-20T14:41:00.904Z,275
2017-02-20T14:42:11.203Z,270
2017-02-20T14:43:21.928Z,265
2017-02-20T14:44:32.645Z,260
2017-02-20T14:45:43.353Z,260
2017-02-20T14:46:54.064Z,220
2017-02-20T14:48:04.778Z,205
2017-02-20T14:49:15.098Z,195
2017-02-20T14:50:25.818Z,195
2017-02-20T14:51:36.555Z,190
2017-02-20T14:52:47.268Z,190
2017-02-20T14:53:57.962Z,190
2017-02-20T14:55:07.897Z,185
2017-02-20T14:56:18.201Z,180
2017-02-20T14:57:28.922Z,175
2017-02-20T14:58:39.667Z,170
2017-02-20T14:59:49.985Z,165
2017-02-20T15:01:00.714Z,160
2017-02-20T15:02:11.524Z,160
2017-02-20T15:03:21.842Z,150
2017-02-20T15:04:32.196Z,145
2017-02-20T15:05:42.901Z,140
2017-02-20T15:06:53.617Z,130
2017-02-20T15:08:04.341Z,125
2017-02-20T15:09:15.068Z,120
2017-02-20T15:10:25.776Z,120
2017-02-20T15:11:36.503Z,115
2017-02-20T15:12:47.219Z,115
2017-02-20T15:13:57.926Z,115
2017-02-20T15:15:07.432Z,110
2017-02-20T15:16:18.161Z,105
2017-02-20T15:17:28.870Z,100
2017-02-20T15:18:39.577Z,105
2017-02-20T15:19:50.285Z,100
2017-02-20T15:21:00.996Z,100
2017-02-20T15:22:11.714Z,95
2017-02-20T15:23:22.044Z,95
2017-02-20T15:24:32.739Z,95
2017-02-20T15:25:43.469Z,95
2017-02-20T15:26:54.174Z,95
2017-02-20T15:28:04.896Z,90
2017-02-20T15:29:15.598Z,85
2017-02-20T15:30:25.899Z,80
2017-02-20T15:31:36.596Z,75
2017-02-20T15:32:47.328Z,75
2017-02-20T15:33:58.051Z,70
2017-02-20T15:35:07.572Z,70
2017-02-20T15:36:18.293Z,65
2017-02-20T15:37:29.002Z,65
2017-02-20T15:38:39.712Z,60
2017-02-20T15:39:50.042Z,60
2017-02-20T15:41:00.361Z,60
2017-02-20T15:42:10.697Z,60
2017-02-20T15:43:21.408Z,60
2017-02-20T15:44:32.119Z,60
2017-02-20T15:45:42.852Z,55
2017-02-20T15:46:53.557Z,55
2017-02-20T15:48:04.256Z,55
2017-02-20T15:49:14.555Z,55
2017-02-20T15:50:25.256Z,55
2017-02-20T15:51:35.957Z,50
2017-02-20T15:52:46.661Z,50
2017-02-20T15:53:57.396Z,45
2017-02-20T15:55:07.744Z,45
2017-02-20T15:56:17.676Z,40
2017-02-20T15:57:28.391Z,35
2017-02-20T15:58:39.098Z,35
2017-02-20T15:59:49.794Z,30
2017-02-20T16:01:00.101Z,25
2017-02-20T16:02:10.817Z,25
2017-02-20T16:03:21.564Z,20
2017-02-20T16:04:32.279Z,20
2017-02-20T16:05:42.990Z,20
2017-02-20T16:06:53.707Z,15
2017-02-20T16:08:04.420Z,15
2017-02-20T16:09:15.133Z,15
2017-02-20T16:10:25.823Z,15
2017-02-20T16:11:36.542Z,10
2017-02-20T16:12:47.255Z,10
2017-02-20T16:13:57.971Z,10
2017-02-20T16:15:07.504Z,5
2017-02-20T16:16:17.821Z,5
2017-02-20T16:17:28.548Z,5
2017-02-20T16:18:39.243Z,5
2017-02-20T16:19:49.552Z,5
2017-02-20T16:20:59.869Z,5
2017-02-20T16:22:10.576Z,5
2017-02-20T16:23:21.284Z,5
2017-02-20T16:24:31.585Z,0
2017-02-20T16:25:42.297Z,0
2017-02-20T16:26:52.994Z,0
2017-02-20T16:28:03.323Z,0
2017-02-20T16:29:14.043Z,0
2017-02-20T16:30:24.380Z,0
2017-02-20T16:31:35.086Z,0
2017-02-20T16:32:45.404Z,0
2017-02-20T16:33:56.122Z,0
2017-02-20T16:35:06.427Z,0
2017-02-20T16:36:16.756Z,0
2017-02-20T16:37:27.062Z,0
2017-02-20T16:38:37.799Z,0
2017-02-20T16:39:48.506Z,0
2017-02-20T16:40:58.816Z,0
2017-02-20T16:42:09.517Z,0
2017-02-20T16:43:19.452Z,0
2017-02-20T16:44:30.165Z,0
2017-02-20T16:45:40.864Z,0
2017-02-20T16:46:51.595Z,0